createdAt,value
2022-11-16T00:03:59.724Z,40.50
2022-11-16T00:09:27.010Z,35.30
2022-11-16T00:14:49.303Z,37.60
2022-11-16T00:20:11.735Z,34.60
2022-11-16T00:25:34.508Z,41.80
2022-11-16T00:31:01.616Z,38.70
2022-11-16T00:36:23.819Z,40.20
2022-11-16T00:41:45.872Z,36.90
2022-11-16T00:47:07.945Z,39.50
2022-11-16T00:52:30.521Z,37.10
2022-11-16T00:57:52.565Z,32.50
2022-11-16T01:03:15.918Z,29.10
2022-11-16T01:08:38.731Z,30.50
2022-11-16T01:14:03.334Z,31.80
2022-11-16T01:19:25.194Z,28.40
2022-11-16T01:24:47.529Z,28.30
2022-11-16T01:30:11.465Z,23.70
2022-11-16T01:35:37.910Z,24.60
2022-11-16T01:41:00.029Z,21.30
2022-11-16T01:46:25.281Z,19.80
2022-11-16T01:51:51.827Z,20.70
2022-11-16T01:57:20.852Z,20.40
2022-11-16T02:02:57.403Z,22.50
2022-11-16T02:09:04.750Z,20.60
2022-11-16T02:14:42.078Z,21.30
2022-11-16T02:20:36.666Z,23.50
2022-11-16T02:26:22.288Z,24.60
2022-11-16T02:31:51.709Z,25.90
2022-11-16T02:37:17.394Z,27.80
2022-11-16T02:42:44.540Z,29.10
2022-11-16T02:48:11.946Z,30.10
2022-11-16T02:53:39.484Z,31.00
2022-11-16T02:59:04.772Z,32.30
2022-11-16T03:04:32.429Z,29.40
2022-11-16T03:09:55.253Z,28.80
2022-11-16T03:15:17.958Z,31.10
2022-11-16T03:20:40.974Z,30.60
2022-11-16T03:26:06.341Z,30.50
2022-11-16T03:31:43.142Z,31.10
2022-11-16T03:37:09.586Z,31.80
2022-11-16T03:42:32.019Z,33.60
2022-11-16T03:47:53.917Z,31.50
2022-11-16T03:53:16.078Z,31.50
2022-11-16T03:58:38.109Z,31.50
2022-11-16T04:03:59.738Z,29.20
2022-11-16T04:09:40.198Z,28.60
2022-11-16T04:15:21.147Z,29.10
2022-11-16T04:21:03.931Z,30.80
2022-11-16T04:26:46.529Z,29.50
2022-11-16T04:32:28.106Z,27.50
2022-11-16T04:37:52.669Z,29.00
2022-11-16T04:43:21.721Z,28.90
2022-11-16T04:48:43.751Z,29.70
2022-11-16T04:54:06.584Z,29.10
2022-11-16T04:59:28.368Z,28.40
2022-11-16T05:04:50.543Z,28.40
2022-11-16T05:10:13.576Z,28.60
2022-11-16T05:15:35.505Z,31.00
2022-11-16T05:21:00.446Z,29.00
2022-11-16T05:26:24.181Z,28.70
2022-11-16T05:31:47.187Z,28.90
2022-11-16T05:37:09.055Z,37.90
2022-11-16T05:42:30.614Z,34.00
2022-11-16T05:47:54.307Z,31.60
2022-11-16T05:53:16.841Z,27.60
2022-11-16T05:58:38.873Z,26.00
2022-11-16T06:04:02.118Z,25.60
2022-11-16T06:09:25.241Z,26.40
2022-11-16T06:14:49.238Z,23.80
2022-11-16T06:20:11.912Z,23.30
2022-11-16T06:25:34.330Z,23.80
2022-11-16T06:30:56.853Z,23.50
2022-11-16T06:36:19.979Z,24.50
2022-11-16T06:41:42.532Z,25.60
2022-11-16T06:47:05.189Z,22.10
2022-11-16T06:52:28.357Z,21.60
2022-11-16T06:57:50.323Z,21.80
2022-11-16T07:03:12.456Z,21.90
2022-11-16T07:08:34.242Z,22.90
2022-11-16T07:13:56.315Z,53.50
2022-11-16T07:19:18.448Z,29.20
2022-11-16T07:24:40.341Z,30.10
2022-11-16T07:30:04.210Z,26.20
2022-11-16T07:35:49.685Z,25.40
2022-11-16T07:41:14.266Z,26.70
2022-11-16T07:46:47.854Z,27.70
2022-11-16T07:52:10.874Z,30.80
2022-11-16T07:57:53.437Z,28.30
2022-11-16T08:03:20.443Z,28.20
2022-11-16T08:08:45.202Z,28.30
2022-11-16T08:14:08.067Z,29.10
2022-11-16T08:19:30.615Z,35.90
2022-11-16T08:24:53.088Z,39.00
2022-11-16T08:30:15.478Z,34.20
2022-11-16T08:35:39.170Z,30.40
2022-11-16T08:41:01.587Z,32.50
2022-11-16T08:46:23.413Z,53.10
2022-11-16T08:51:50.124Z,36.40
2022-11-16T08:57:13.781Z,35.50
2022-11-16T09:02:39.800Z,37.70
2022-11-16T09:08:01.545Z,35.40
2022-11-16T09:13:23.222Z,46.10
2022-11-16T09:18:47.271Z,37.10
2022-11-16T09:24:09.322Z,43.60
2022-11-16T09:29:31.193Z,36.30
2022-11-16T09:35:04.232Z,42.70
2022-11-16T09:40:33.699Z,38.40
2022-11-16T09:46:14.672Z,38.20
2022-11-16T09:51:37.707Z,42.30
2022-11-16T09:57:02.143Z,49.10
2022-11-16T10:02:32.657Z,43.30
2022-11-16T10:08:03.967Z,39.10
2022-11-16T10:13:35.291Z,36.90
2022-11-16T10:19:06.943Z,39.00
2022-11-16T10:24:53.695Z,37.50
2022-11-16T10:30:20.545Z,37.80
2022-11-16T10:35:49.937Z,39.80
2022-11-16T10:41:26.421Z,38.90
2022-11-16T10:47:03.976Z,39.30
2022-11-16T10:52:25.725Z,41.70
2022-11-16T10:58:00.212Z,36.40
2022-11-16T11:03:31.611Z,36.70
2022-11-16T11:08:53.463Z,45.10
2022-11-16T11:14:15.779Z,39.50
2022-11-16T11:19:37.948Z,42.40
2022-11-16T11:25:01.985Z,42.20
2022-11-16T11:30:24.041Z,35.00
2022-11-16T11:35:47.240Z,22.80
2022-11-16T11:41:18.808Z,18.10
2022-11-16T11:47:35.358Z,16.50
2022-11-16T11:52:34.705Z,19.70
2022-11-16T11:57:57.776Z,13.40
2022-11-16T12:03:57.314Z,12.10
2022-11-16T12:09:25.558Z,15.70
2022-11-16T12:15:00.477Z,11.00
2022-11-16T12:20:25.872Z,7.90
2022-11-16T12:26:16.013Z,6.90
2022-11-16T12:31:53.052Z,7.30
2022-11-16T12:37:29.956Z,8.60
2022-11-16T12:42:58.188Z,15.20
2022-11-16T12:48:39.010Z,12.50
2022-11-16T12:54:32.374Z,12.90
2022-11-16T13:00:03.303Z,12.50
2022-11-16T13:05:48.228Z,13.40
2022-11-16T13:11:21.197Z,12.30
2022-11-16T13:16:44.299Z,8.60
2022-11-16T13:22:20.069Z,8.40
2022-11-16T13:27:48.265Z,11.30
2022-11-16T13:38:53.409Z,9.10
2022-11-16T13:44:21.238Z,12.80
2022-11-16T13:49:51.690Z,11.00
2022-11-16T13:55:29.895Z,15.80
2022-11-16T14:01:10.929Z,15.00
2022-11-16T14:06:32.881Z,15.90
2022-11-16T14:11:54.668Z,20.90
2022-11-16T14:18:11.881Z,18.30
2022-11-16T14:24:05.323Z,32.80
2022-11-16T14:29:38.956Z,19.30
2022-11-16T14:35:02.076Z,13.40
2022-11-16T14:40:24.408Z,13.90
2022-11-16T14:45:53.243Z,12.20
2022-11-16T14:51:32.198Z,11.40
2022-11-16T15:02:22.552Z,13.10
2022-11-16T15:07:46.381Z,15.00
2022-11-16T15:13:08.097Z,14.30
2022-11-16T15:18:29.887Z,14.70
2022-11-16T15:24:15.525Z,14.80
2022-11-16T15:29:34.225Z,11.80
2022-11-16T15:34:58.040Z,11.50
2022-11-16T15:40:23.059Z,11.20
2022-11-16T15:45:45.698Z,11.60
2022-11-16T15:51:20.074Z,11.50
2022-11-16T15:56:42.140Z,13.20
2022-11-16T16:02:04.622Z,30.50
2022-11-16T16:07:49.246Z,14.60
2022-11-16T16:13:28.400Z,19.50
2022-11-16T16:18:51.155Z,18.20
2022-11-16T16:24:38.783Z,21.00
2022-11-16T16:30:04.961Z,11.30
2022-11-16T16:35:26.596Z,10.00
2022-11-16T16:40:48.452Z,11.10
2022-11-16T16:46:11.559Z,12.30
2022-11-16T16:51:34.236Z,20.00
2022-11-16T16:56:57.418Z,18.30
2022-11-16T17:02:19.667Z,24.10
2022-11-16T17:07:41.359Z,18.10
2022-11-16T17:13:04.015Z,12.60
2022-11-16T17:18:26.352Z,12.10
2022-11-16T17:23:48.291Z,12.50
2022-11-16T17:29:10.338Z,14.50
2022-11-16T17:34:32.118Z,12.70
2022-11-16T17:39:53.774Z,13.80
2022-11-16T17:45:15.918Z,14.50
2022-11-16T17:50:37.477Z,12.80
2022-11-16T17:55:59.822Z,15.40
2022-11-16T18:01:22.298Z,15.00
2022-11-16T18:06:44.251Z,14.50
2022-11-16T18:12:06.547Z,12.40
2022-11-16T18:17:28.514Z,14.10
2022-11-16T18:22:50.547Z,12.40
2022-11-16T18:28:13.007Z,14.60
2022-11-16T18:33:36.644Z,10.80
2022-11-16T18:38:58.732Z,8.30
2022-11-16T18:44:20.229Z,8.70
2022-11-16T18:49:42.261Z,11.30
2022-11-16T18:55:04.675Z,9.90
2022-11-16T19:00:26.922Z,9.90
2022-11-16T19:05:56.834Z,9.60
2022-11-16T19:11:19.083Z,8.70
2022-11-16T19:16:52.547Z,7.50
2022-11-16T19:22:16.315Z,7.20
2022-11-16T19:27:38.344Z,6.60
2022-11-16T19:33:01.078Z,6.10
2022-11-16T19:38:24.089Z,5.60
2022-11-16T19:43:45.969Z,4.80
2022-11-16T19:49:10.230Z,5.40
2022-11-16T19:54:32.158Z,4.80
2022-11-16T19:59:54.238Z,4.90
2022-11-16T20:05:16.367Z,14.50
2022-11-16T20:10:38.393Z,8.00
2022-11-16T20:16:01.465Z,5.00
2022-11-16T20:21:25.838Z,5.40
2022-11-16T20:26:49.217Z,10.10
2022-11-16T20:32:11.190Z,7.70
2022-11-16T20:37:33.059Z,6.20
2022-11-16T20:42:59.204Z,4.80
2022-11-16T20:48:20.931Z,5.90
2022-11-16T20:53:43.731Z,6.30
2022-11-16T20:59:05.693Z,6.00
2022-11-16T21:04:27.650Z,5.50
2022-11-16T21:10:08.784Z,5.00
2022-11-16T21:15:31.049Z,4.40
2022-11-16T21:21:03.921Z,4.50
2022-11-16T21:26:27.776Z,5.80
2022-11-16T21:31:50.183Z,5.30
2022-11-16T21:37:12.014Z,5.60
2022-11-16T21:42:33.948Z,5.40
2022-11-16T21:47:55.985Z,6.50
2022-11-16T21:53:17.901Z,6.40
2022-11-16T21:58:40.834Z,6.80
2022-11-16T22:04:21.236Z,7.60
2022-11-16T22:09:43.461Z,6.90
2022-11-16T22:15:07.643Z,5.40
2022-11-16T22:20:29.706Z,5.60
2022-11-16T22:25:51.922Z,5.30
2022-11-16T22:31:14.925Z,6.00
2022-11-16T22:36:36.947Z,5.90
2022-11-16T22:41:58.475Z,4.50
2022-11-16T22:47:20.699Z,3.10
2022-11-16T22:52:42.607Z,3.50
2022-11-16T22:58:05.843Z,4.40
2022-11-16T23:03:30.437Z,3.40
2022-11-16T23:08:52.547Z,3.30
2022-11-16T23:14:35.225Z,3.70
2022-11-16T23:20:17.840Z,6.00
2022-11-16T23:25:58.912Z,5.40
2022-11-16T23:31:21.043Z,3.70
2022-11-16T23:36:43.675Z,5.80
2022-11-16T23:42:24.026Z,3.90
2022-11-16T23:47:46.027Z,4.10
2022-11-16T23:53:09.699Z,4.30
2022-11-16T23:58:31.875Z,2.60
